Airfield :
LOGIN :

Register | Disclaimer

   EN    FR    IT 

 










Legend :    VFR   Marginal VFR   IFR   Intensive IFR   Very Intensive IFR
Visi :
Ceiling :
>= 8 km
>= 3000ft
5 to 8 km
1000 to 3000 ft
1500m to 5 km
500 to 1000 ft
800 to 1500m
200 to 500 ft
< 800m
< 200 ft
Symbols :   Thunderstorms  Fog  Heavy snow  Heavy precipitations  Wind > 20 kt
SIGMETs :     Misc.  Thunderstorms  Icing  Turbulence  Mountain Waves  Volcanic Ashes






- Airport Elevation : 119 ft
- IATA code : WAT


EIWF - Waterford

CURRENT METAR :
  • 071000Z VRB02KT CAVOK 10/M00 Q1017

EXPIRED METARs :
  • 070930Z VRB03KT CAVOK 09/02 Q1017
  • 070900Z 08004KT 030V150 CAVOK 08/02 Q1017
  • 070830Z 08004KT 030V130 CAVOK 08/03 Q1017
  • 070800Z 04005KT 360V080 CAVOK 07/02 Q1017
  • 070730Z 01004KT 330V050 CAVOK 06/02 Q1016

TAF TAF EIWF
Valid from the 07 at 09:00 until the 07 at 18:00 UTC


070800Z 0709/0718 VRB03KT 9999 FEW030
BECMG 0710/0712 18010KT
BECMG 0714/0716 15012KT
ATIS : +353 51 877 000



MET'MAP, your aeronautical weather chart ! - Copyright ORBIFLY December 2007 - Disclaimer

ORBIFLY MET'MAP TEAM :

Programming & Development : Alexandra Zaïnal
Concept & original design : Baudouin d'Aumeries
Assistance for programming : Marc-Olivier Méhu
Technical & hardware support : Manuel Goepfert

Contact : metmap@orbifly.com




SOURCES & CREDITS :

   NOAA